Time;durP1;ratioP1;P1;durP2;ratioP2;P2;SDS_P1;SDS_P2;PMS_P1;PMS_P2;Temp;Humidity;BMP_temperature;BMP_pressure;BME280_temperature;BME280_humidity;BME280_pressure;Samples;Min_cycle;Max_cycle;Signal;HPM_P1;HPM_P2
2021/04/22 00:03:23;;;;;;;14.55;10.75;;;;;;;11.41;73.06;99939.11;2821158;84;21673;-64
2021/04/22 00:07:25;;;;;;;13.83;10.85;;;;;;;11.48;72.67;99937.56;2821469;84;21169;-63
2021/04/22 00:11:29;;;;;;;15.55;9.90;;;;;;;11.54;72.46;99937.49;2821196;84;21181;-63
2021/04/22 00:15:32;;;;;;;12.35;8.43;;;;;;;11.61;72.07;99935.11;2808611;84;21166;-62
2021/04/22 00:19:36;;;;;;;11.93;8.55;;;;;;;11.67;71.49;99935.36;2803306;82;21437;-65
2021/04/22 00:23:38;;;;;;;10.55;8.25;;;;;;;11.81;71.23;99933.25;2786706;82;21139;-62
2021/04/22 00:27:42;;;;;;;11.88;9.43;;;;;;;11.86;71.23;99942.50;2780089;85;21205;-62
2021/04/22 00:31:45;;;;;;;11.20;8.38;;;;;;;11.89;71.51;99952.53;2864511;82;21563;-62
2021/04/22 00:35:49;;;;;;;10.23;8.58;;;;;;;11.84;71.72;99963.13;2882500;82;21172;-64
2021/04/22 00:39:52;;;;;;;16.30;10.70;;;;;;;11.83;71.90;99966.78;2782310;85;21157;-63
2021/04/22 00:43:55;;;;;;;14.15;10.15;;;;;;;11.82;72.21;99966.44;2784960;85;21174;-62
2021/04/22 00:47:58;;;;;;;14.35;8.95;;;;;;;11.79;72.39;99968.05;2882363;82;21198;-62
2021/04/22 00:52:03;;;;;;;14.85;10.75;;;;;;;11.78;73.12;99973.52;2882703;82;21164;-62
2021/04/22 00:56:06;;;;;;;12.45;10.85;;;;;;;11.77;73.71;99975.32;2831985;84;21141;-65
2021/04/22 01:00:16;;;;;;;21.77;10.53;;;;;;;11.72;74.18;99977.58;2847548;83;21165;-62
2021/04/22 01:04:18;;;;;;;19.92;11.73;;;;;;;11.63;74.64;99975.27;2882536;82;21128;-63
2021/04/22 01:08:21;;;;;;;18.20;11.75;;;;;;;11.61;75.07;99985.22;2909081;81;21150;-63
2021/04/22 01:12:24;;;;;;;17.05;10.60;;;;;;;11.56;75.39;99986.97;2882396;82;21181;-62
2021/04/22 01:16:27;;;;;;;16.50;10.90;;;;;;;11.49;75.79;99996.50;2908858;81;21177;-63
2021/04/22 01:20:41;;;;;;;12.40;9.53;;;;;;;11.47;75.90;100006.45;2882876;82;21184;-63
2021/04/22 01:24:45;;;;;;;16.67;10.00;;;;;;;11.42;75.32;100000.20;2881858;82;21172;-64
2021/04/22 01:28:49;;;;;;;10.98;9.13;;;;;;;11.31;75.83;100012.33;2908868;81;21134;-64
2021/04/22 01:32:52;;;;;;;9.13;7.42;;;;;;;11.24;76.03;100018.69;2882586;82;21141;-64
2021/04/22 01:36:55;;;;;;;9.90;8.93;;;;;;;11.15;76.78;100024.81;2882274;82;21156;-64
2021/04/22 01:41:02;;;;;;;13.30;8.80;;;;;;;11.06;76.88;100031.80;2882446;82;21228;-64
2021/04/22 01:45:08;;;;;;;12.40;9.23;;;;;;;11.00;76.63;100028.35;2882444;82;21198;-63
2021/04/22 01:49:11;;;;;;;27.50;11.70;;;;;;;11.00;75.97;100026.55;2882573;82;22166;-66
2021/04/22 01:53:16;;;;;;;14.68;10.03;;;;;;;10.97;74.41;100037.44;2908889;81;21138;-62
2021/04/22 01:57:19;;;;;;;15.98;12.10;;;;;;;10.91;74.92;100045.14;2881700;82;21482;-63
2021/04/22 02:01:24;;;;;;;17.12;13.85;;;;;;;10.85;74.89;100038.53;2830803;84;21631;-62
2021/04/22 02:05:26;;;;;;;26.40;12.07;;;;;;;10.80;73.68;100040.72;2783394;85;21192;-63
2021/04/22 02:09:29;;;;;;;20.55;12.07;;;;;;;10.84;73.50;100035.01;2877509;82;21152;-63
2021/04/22 02:13:33;;;;;;;13.50;8.85;;;;;;;10.81;74.01;100044.59;2830557;84;21145;-62
2021/04/22 02:17:36;;;;;;;14.87;9.35;;;;;;;10.81;74.47;100038.45;2876954;82;21156;-65
2021/04/22 02:21:39;;;;;;;18.25;12.15;;;;;;;10.78;73.98;100049.33;2877095;82;21618;-64
2021/04/22 02:25:44;;;;;;;13.25;8.25;;;;;;;10.69;74.10;100053.16;2830769;84;21169;-64
2021/04/22 02:29:46;;;;;;;11.18;7.72;;;;;;;10.60;73.64;100053.93;2877089;82;21132;-63
2021/04/22 02:33:53;;;;;;;10.88;6.55;;;;;;;10.53;73.30;100056.77;2877332;82;21178;-63
2021/04/22 02:37:55;;;;;;;10.60;5.72;;;;;;;10.40;70.81;100057.80;2876987;82;21144;-64
2021/04/22 02:41:58;;;;;;;10.28;5.75;;;;;;;10.37;70.11;100068.67;2780647;85;21169;-65
2021/04/22 02:46:04;;;;;;;10.35;5.42;;;;;;;10.26;68.87;100084.20;2782900;85;21177;-63
2021/04/22 02:50:12;;;;;;;7.20;3.75;;;;;;;10.24;69.35;100090.14;2783457;85;21148;-63
2021/04/22 02:54:16;;;;;;;8.58;3.80;;;;;;;10.15;67.96;100100.22;2783702;84;21204;-63
2021/04/22 02:58:21;;;;;;;5.83;2.67;;;;;;;9.84;63.93;100083.67;2800388;83;21593;-64
2021/04/22 03:02:24;;;;;;;8.03;2.67;;;;;;;9.61;63.31;100103.27;2853995;83;21165;-64
2021/04/22 03:06:27;;;;;;;6.03;3.10;;;;;;;9.41;63.91;100088.47;2853578;83;21458;-62
2021/04/22 03:10:32;;;;;;;3.75;2.25;;;;;;;9.24;63.33;100092.48;2853757;83;21157;-64
2021/04/22 03:14:35;;;;;;;7.20;2.15;;;;;;;9.08;62.17;100107.45;2853707;83;21173;-63
2021/04/22 03:18:38;;;;;;;8.53;3.08;;;;;;;8.94;61.44;100113.34;2853435;83;21173;-62
2021/04/22 03:22:41;;;;;;;2.83;1.72;;;;;;;8.83;61.76;100133.22;2853757;83;21490;-64
2021/04/22 03:26:44;;;;;;;7.90;3.77;;;;;;;8.58;62.11;100132.45;2853500;83;21189;-64
2021/04/22 03:30:47;;;;;;;8.00;3.98;;;;;;;8.46;63.49;100148.78;2853742;83;21129;-64
2021/04/22 03:34:50;;;;;;;6.20;3.42;;;;;;;8.25;65.84;100144.59;2853722;83;21169;-65
2021/04/22 03:38:54;;;;;;;7.87;2.60;;;;;;;7.97;64.84;100155.91;2853336;83;21137;-64
2021/04/22 03:42:57;;;;;;;6.42;2.95;;;;;;;7.67;64.74;100157.20;2853482;83;21952;-64
2021/04/22 03:47:00;;;;;;;5.75;2.65;;;;;;;7.57;64.98;100179.02;2853423;83;21667;-64
2021/04/22 03:51:03;;;;;;;3.72;1.82;;;;;;;7.42;63.56;100182.74;2853501;83;21138;-64
2021/04/22 03:55:09;;;;;;;7.40;2.47;;;;;;;7.39;63.42;100190.91;2853513;83;21157;-64
2021/04/22 03:59:12;;;;;;;7.08;2.05;;;;;;;7.34;64.16;100193.03;2853044;83;21432;-64
2021/04/22 04:03:15;;;;;;;4.62;1.92;;;;;;;7.25;65.44;100199.81;2852578;82;21177;-66
2021/04/22 04:07:18;;;;;;;6.33;2.62;;;;;;;7.12;65.24;100206.43;2852474;83;21177;-63
2021/04/22 04:11:22;;;;;;;4.33;2.50;;;;;;;7.00;64.65;100210.27;2852677;83;21559;-63
2021/04/22 04:15:25;;;;;;;11.93;3.05;;;;;;;6.99;64.42;100219.65;2852646;83;21161;-64
2021/04/22 04:19:28;;;;;;;6.28;3.30;;;;;;;6.98;64.81;100228.05;2852820;83;21181;-63
2021/04/22 04:23:31;;;;;;;9.63;2.75;;;;;;;6.90;65.96;100238.31;2852844;83;21161;-62
2021/04/22 04:27:35;;;;;;;13.00;4.12;;;;;;;6.87;65.62;100239.81;2851993;83;21568;-64
2021/04/22 04:31:39;;;;;;;6.10;4.00;;;;;;;6.83;66.11;100255.52;2765145;84;21208;-65
2021/04/22 04:35:42;;;;;;;8.58;3.80;;;;;;;6.68;65.94;100267.50;2772227;85;21275;-65
2021/04/22 04:39:46;;;;;;;7.42;3.77;;;;;;;6.67;63.86;100256.53;2772307;85;21176;-64
2021/04/22 04:43:49;;;;;;;8.78;3.60;;;;;;;6.61;63.52;100272.80;2772065;85;21148;-61
2021/04/22 04:47:52;;;;;;;13.85;3.45;;;;;;;6.61;63.98;100270.16;2772284;85;21136;-64
2021/04/22 04:51:55;;;;;;;17.25;3.17;;;;;;;6.51;65.06;100271.72;2772399;85;21168;-63
2021/04/22 04:55:58;;;;;;;7.42;3.77;;;;;;;6.54;64.94;100278.95;2772199;84;21187;-63
2021/04/22 05:00:09;;;;;;;14.18;4.00;;;;;;;6.73;64.48;100287.00;2771367;85;21172;-62
2021/04/22 05:04:12;;;;;;;8.05;3.85;;;;;;;6.78;64.23;100288.03;2772705;85;21129;-63
2021/04/22 05:08:16;;;;;;;15.25;3.80;;;;;;;6.78;63.66;100302.57;2772219;85;21144;-64
2021/04/22 05:12:19;;;;;;;8.75;3.60;;;;;;;7.18;61.45;100290.66;2772569;85;21196;-64
2021/04/22 05:16:22;;;;;;;11.88;4.85;;;;;;;7.63;59.89;100310.58;2772552;85;21179;-63
2021/04/22 05:20:24;;;;;;;9.73;4.03;;;;;;;7.97;59.79;100299.81;2772272;85;21184;-64
2021/04/22 05:24:29;;;;;;;16.62;5.95;;;;;;;8.28;58.81;100315.33;2772700;85;21193;-64
2021/04/22 05:28:31;;;;;;;15.72;6.28;;;;;;;8.55;58.37;100311.66;2772511;84;21132;-64
2021/04/22 05:32:35;;;;;;;8.00;4.55;;;;;;;8.73;57.96;100316.08;2772398;85;21176;-64
2021/04/22 05:36:38;;;;;;;12.88;6.00;;;;;;;8.68;54.55;100329.69;2772312;85;21129;-64
2021/04/22 05:40:42;;;;;;;12.18;5.55;;;;;;;8.90;57.17;100320.15;2772289;85;21212;-63
2021/04/22 05:44:45;;;;;;;13.93;4.40;;;;;;;8.47;54.38;100302.06;2772360;85;21148;-64
2021/04/22 05:48:48;;;;;;;17.80;5.62;;;;;;;8.34;54.32;100325.94;2772221;85;21176;-63
2021/04/22 05:52:53;;;;;;;20.43;7.87;;;;;;;7.88;56.51;100325.61;2772397;85;21144;-62
2021/04/22 05:56:55;;;;;;;10.25;4.70;;;;;;;7.55;56.75;100351.67;2772084;85;21192;-64
2021/04/22 06:00:59;;;;;;;11.95;4.10;;;;;;;7.28;57.38;100318.66;2772159;84;21212;-63
2021/04/22 06:05:03;;;;;;;13.70;5.45;;;;;;;7.25;59.21;100332.10;2772225;85;21686;-64
2021/04/22 06:09:07;;;;;;;19.55;6.08;;;;;;;7.27;59.97;100340.32;2772174;85;21602;-64
2021/04/22 06:13:12;;;;;;;9.48;5.17;;;;;;;7.32;60.48;100338.66;2772435;85;21147;-63
2021/04/22 06:17:15;;;;;;;9.90;3.77;;;;;;;7.24;59.61;100333.88;2772147;85;21187;-64
2021/04/22 06:21:19;;;;;;;9.83;6.28;;;;;;;7.14;59.41;100347.38;2772252;84;21622;-63
2021/04/22 06:25:23;;;;;;;10.95;6.70;;;;;;;7.20;59.20;100337.70;2772542;85;21148;-63
2021/04/22 06:29:25;;;;;;;13.00;4.97;;;;;;;7.12;60.02;100351.92;2772230;85;21164;-62
2021/04/22 06:33:29;;;;;;;18.48;4.47;;;;;;;7.10;58.81;100357.79;2772347;85;21156;-63
2021/04/22 06:37:32;;;;;;;10.03;5.17;;;;;;;7.22;60.35;100356.95;2772176;85;21594;-63
2021/04/22 06:41:35;;;;;;;9.58;5.33;;;;;;;7.20;59.83;100366.80;2768934;85;21169;-64
2021/04/22 06:49:55;;;;;;;11.85;5.87;;;;;;;7.09;60.17;100379.91;2829948;84;21172;-62
2021/04/22 06:53:58;;;;;;;19.48;6.33;;;;;;;7.19;60.35;100385.44;2830858;84;21144;-63
2021/04/22 06:58:05;;;;;;;13.60;5.75;;;;;;;7.40;59.97;100377.84;2830187;84;21176;-62
2021/04/22 07:02:09;;;;;;;8.40;4.33;;;;;;;7.54;58.88;100375.13;2830031;84;21148;-62
2021/04/22 07:06:12;;;;;;;12.68;7.03;;;;;;;7.58;57.67;100381.90;2830944;84;21144;-63
2021/04/22 07:10:16;;;;;;;6.75;4.15;;;;;;;7.69;59.19;100382.98;2830182;84;21176;-62
2021/04/22 07:14:19;;;;;;;8.13;4.87;;;;;;;7.66;57.53;100385.81;2830648;84;21164;-64
2021/04/22 07:18:23;;;;;;;9.58;4.58;;;;;;;8.04;57.99;100395.57;2829803;84;21156;-64
2021/04/22 07:22:26;;;;;;;7.45;3.50;;;;;;;8.32;59.38;100400.74;2829942;83;21511;-64
2021/04/22 07:26:29;;;;;;;10.30;5.80;;;;;;;8.24;59.14;100383.59;2830314;83;21101;-64
2021/04/22 07:30:33;;;;;;;13.85;4.67;;;;;;;8.05;58.67;100399.91;2830067;83;21149;-63
2021/04/22 07:34:36;;;;;;;9.95;3.72;;;;;;;8.11;57.26;100386.27;2830075;84;21223;-64
2021/04/22 07:38:39;;;;;;;5.65;5.05;;;;;;;8.26;59.07;100403.37;2829871;83;21156;-62
2021/04/22 07:42:42;;;;;;;8.73;3.52;;;;;;;8.25;58.76;100424.17;2829968;84;21623;-63
2021/04/22 07:46:46;;;;;;;9.93;3.98;;;;;;;8.75;58.19;100399.52;2829853;84;21096;-64
2021/04/22 07:50:49;;;;;;;5.15;3.22;;;;;;;8.94;58.68;100424.21;2868720;83;21143;-64
2021/04/22 07:54:53;;;;;;;12.53;4.33;;;;;;;8.79;56.29;100415.10;2868853;83;21103;-63
2021/04/22 07:58:56;;;;;;;8.55;4.72;;;;;;;8.85;55.88;100413.82;2868799;83;21143;-63
2021/04/22 08:03:01;;;;;;;8.33;4.55;;;;;;;8.91;57.17;100412.03;2868824;83;21111;-65
2021/04/22 08:07:05;;;;;;;37.80;5.70;;;;;;;9.12;58.38;100412.75;2868863;83;21134;-65
2021/04/22 08:11:08;;;;;;;14.20;4.25;;;;;;;9.13;58.68;100408.63;2868684;83;21123;-63
2021/04/22 08:15:13;;;;;;;16.67;6.33;;;;;;;9.27;58.13;100398.34;2868741;83;21099;-63
2021/04/22 08:19:15;;;;;;;16.10;4.50;;;;;;;8.91;55.89;100408.52;2868676;83;21597;-63
2021/04/22 08:23:19;;;;;;;14.55;4.53;;;;;;;9.06;57.66;100426.48;2868775;83;21409;-64
2021/04/22 08:27:21;;;;;;;9.55;4.05;;;;;;;9.14;56.67;100418.31;2869058;83;21119;-63
2021/04/22 08:31:29;;;;;;;14.28;4.53;;;;;;;9.11;57.62;100429.63;2868860;83;21108;-63
2021/04/22 08:35:32;;;;;;;12.65;5.58;;;;;;;9.60;56.93;100426.45;2868953;83;21350;-63
2021/04/22 08:39:35;;;;;;;10.25;5.12;;;;;;;9.62;57.46;100417.02;2869162;83;21569;-64
2021/04/22 08:43:39;;;;;;;5.70;3.85;;;;;;;9.58;56.31;100425.72;2869060;83;21133;-64
2021/04/22 08:47:44;;;;;;;13.15;3.58;;;;;;;9.56;55.56;100412.55;2865173;83;21391;-63
2021/04/22 08:51:48;;;;;;;20.02;3.90;;;;;;;9.48;58.12;100425.57;2856061;83;21743;-63
2021/04/22 08:55:52;;;;;;;8.25;3.50;;;;;;;9.90;56.41;100414.92;2856125;83;21107;-64
2021/04/22 08:59:55;;;;;;;9.13;3.35;;;;;;;10.08;56.31;100420.61;2856143;83;21159;-63
2021/04/22 09:03:58;;;;;;;7.60;4.58;;;;;;;10.12;57.08;100423.39;2856204;83;21135;-64
2021/04/22 09:08:00;;;;;;;11.75;3.52;;;;;;;10.23;55.40;100401.31;2856143;83;21139;-63
2021/04/22 09:12:13;;;;;;;7.25;4.28;;;;;;;10.10;54.01;100424.86;2856312;83;21399;-63
2021/04/22 09:16:20;;;;;;;5.03;2.98;;;;;;;10.10;53.97;100417.35;2852504;83;21570;-64
2021/04/22 09:20:31;;;;;;;8.35;4.47;;;;;;;10.12;52.79;100418.94;2856355;83;21123;-65
2021/04/22 09:24:34;;;;;;;11.70;4.12;;;;;;;10.11;53.49;100414.59;2856180;83;21115;-64
2021/04/22 09:28:42;;;;;;;12.75;4.60;;;;;;;10.09;54.48;100410.34;2856327;83;21143;-63
2021/04/22 09:32:45;;;;;;;14.40;3.90;;;;;;;10.22;54.79;100413.75;2855953;83;21171;-63
2021/04/22 09:36:52;;;;;;;9.70;4.03;;;;;;;10.33;55.81;100402.77;2856119;83;21131;-63
2021/04/22 09:41:14;;;;;;;8.83;3.83;;;;;;;10.45;55.95;100414.27;2856251;83;21115;-64
2021/04/22 09:45:22;;;;;;;12.05;4.45;;;;;;;10.65;54.62;100407.34;2855924;83;21119;-64
2021/04/22 09:49:27;;;;;;;15.80;5.58;;;;;;;10.68;55.29;100399.97;2829252;84;21186;-64
2021/04/22 09:53:32;;;;;;;11.33;4.47;;;;;;;10.91;55.82;100401.74;2835039;84;21181;-64
2021/04/22 09:57:36;;;;;;;12.78;4.47;;;;;;;11.03;55.03;100385.25;2873313;82;21153;-65
2021/04/22 10:01:39;;;;;;;7.12;4.03;;;;;;;10.96;56.03;100415.02;2873318;82;21164;-63
2021/04/22 10:05:42;;;;;;;9.18;4.65;;;;;;;11.06;54.48;100415.60;2873186;82;21161;-64
2021/04/22 10:09:47;;;;;;;4.15;3.00;;;;;;;11.02;56.92;100414.17;2873355;82;21363;-62
2021/04/22 10:13:52;;;;;;;14.13;5.85;;;;;;;10.76;54.00;100413.13;2876803;82;21176;-64
2021/04/22 10:17:58;;;;;;;11.73;5.92;;;;;;;10.49;53.90;100406.41;2876792;82;21740;-65
2021/04/22 10:22:02;;;;;;;16.10;6.78;;;;;;;10.68;56.63;100394.65;2876767;82;21176;-63
2021/04/22 10:26:05;;;;;;;10.82;5.35;;;;;;;11.08;55.25;100395.02;2878038;82;21606;-65
2021/04/22 10:30:13;;;;;;;6.35;3.87;;;;;;;11.13;55.28;100405.66;2878496;82;21137;-64
2021/04/22 10:34:17;;;;;;;9.03;5.87;;;;;;;11.25;54.33;100403.80;2876147;82;21168;-65
2021/04/22 10:38:22;;;;;;;9.70;3.95;;;;;;;11.09;54.53;100393.55;2876969;82;21148;-63
2021/04/22 10:42:25;;;;;;;9.08;5.83;;;;;;;10.89;55.00;100408.98;2876956;82;21156;-64
2021/04/22 10:46:29;;;;;;;8.63;4.75;;;;;;;10.90;54.12;100398.22;2876687;82;21151;-65
2021/04/22 10:50:39;;;;;;;17.65;6.62;;;;;;;10.60;53.40;100383.76;2879544;82;21126;-64
2021/04/22 10:54:45;;;;;;;9.63;4.42;;;;;;;10.82;55.80;100380.22;2879627;82;21123;-63
2021/04/22 10:58:48;;;;;;;18.75;5.37;;;;;;;10.69;52.42;100400.80;2879677;82;21163;-63
2021/04/22 11:02:53;;;;;;;14.98;5.15;;;;;;;10.99;57.14;100400.62;2879706;82;21122;-64
2021/04/22 11:06:57;;;;;;;15.75;5.30;;;;;;;11.23;54.33;100399.09;2880131;82;21130;-64
2021/04/22 11:11:00;;;;;;;16.73;6.03;;;;;;;11.34;53.63;100419.97;2879994;82;21182;-63
2021/04/22 11:15:05;;;;;;;14.45;6.83;;;;;;;11.35;54.72;100403.02;2879948;82;22181;-66
2021/04/22 11:19:25;;;;;;;12.80;5.35;;;;;;;11.16;53.29;100401.88;2853166;82;21087;-65
2021/04/22 11:23:41;;;;;;;8.73;5.17;;;;;;;10.99;54.42;100401.45;2880017;82;21581;-65
2021/04/22 11:27:52;;;;;;;10.48;4.87;;;;;;;11.25;54.87;100397.61;2879915;82;21131;-65
2021/04/22 11:31:56;;;;;;;15.70;5.72;;;;;;;11.44;51.69;100407.59;2880278;82;21131;-63
2021/04/22 11:36:16;;;;;;;11.73;5.58;;;;;;;11.77;53.77;100400.87;2879824;82;21138;-65
2021/04/22 11:40:30;;;;;;;14.55;6.45;;;;;;;11.78;52.88;100394.56;2857020;82;21477;-64
2021/04/22 11:44:41;;;;;;;12.15;5.65;;;;;;;11.91;52.06;100413.01;2879535;82;21633;-65
2021/04/22 11:48:44;;;;;;;6.42;4.58;;;;;;;11.99;54.02;100411.88;2879624;82;21146;-64
2021/04/22 11:52:55;;;;;;;9.50;5.37;;;;;;;11.98;53.25;100411.49;2879920;82;21139;-63
2021/04/22 11:57:01;;;;;;;9.33;5.20;;;;;;;11.66;53.12;100412.44;2880088;82;21151;-63
2021/04/22 12:01:08;;;;;;;11.30;5.15;;;;;;;11.73;52.20;100410.11;2879902;82;21126;-65
2021/04/22 12:05:16;;;;;;;10.13;4.10;;;;;;;11.74;53.69;100414.45;2879710;82;21135;-65
2021/04/22 12:09:30;;;;;;;19.17;6.70;;;;;;;11.42;52.65;100413.53;2879949;82;21127;-64
2021/04/22 12:13:34;;;;;;;7.33;5.15;;;;;;;11.66;56.14;100385.80;2879827;82;21139;-65
2021/04/22 12:17:37;;;;;;;12.07;3.90;;;;;;;11.84;52.14;100409.55;2880096;82;21103;-65
2021/04/22 12:21:41;;;;;;;15.32;5.70;;;;;;;11.80;54.15;100388.13;2880167;82;21541;-64
2021/04/22 12:25:46;;;;;;;10.08;4.53;;;;;;;12.07;51.97;100389.42;2880408;82;21126;-64
2021/04/22 12:29:49;;;;;;;10.40;5.05;;;;;;;12.28;52.67;100392.52;2880083;82;21127;-65
2021/04/22 12:33:53;;;;;;;7.58;4.30;;;;;;;12.37;52.59;100387.70;2880383;82;21167;-65
2021/04/22 12:38:01;;;;;;;12.15;4.53;;;;;;;12.43;52.76;100392.52;2880072;82;21154;-64
2021/04/22 12:42:24;;;;;;;11.38;4.72;;;;;;;12.62;52.37;100386.88;2877207;82;21159;-66
2021/04/22 12:46:29;;;;;;;9.30;3.77;;;;;;;12.84;52.30;100379.11;2880041;82;21107;-65
2021/04/22 12:50:40;;;;;;;10.15;3.90;;;;;;;12.84;49.37;100383.11;2863060;82;21135;-67
2021/04/22 12:54:44;;;;;;;6.45;3.77;;;;;;;12.84;49.18;100370.27;2855949;83;21135;-65
2021/04/22 12:58:51;;;;;;;8.30;3.60;;;;;;;12.89;49.84;100370.69;2855575;83;21108;-61
2021/04/22 13:02:55;;;;;;;5.45;3.22;;;;;;;13.06;50.35;100374.99;2856479;83;21103;-62
2021/04/22 13:06:58;;;;;;;12.50;4.70;;;;;;;13.30;50.81;100363.89;2856476;83;21135;-60
2021/04/22 13:11:05;;;;;;;9.03;3.65;;;;;;;13.39;48.91;100360.87;2855680;81;21397;-61
2021/04/22 13:15:17;;;;;;;14.23;3.75;;;;;;;13.51;50.45;100372.27;2856169;83;21099;-62
2021/04/22 13:19:22;;;;;;;9.03;3.83;;;;;;;13.53;49.12;100373.80;2856114;83;21610;-60
2021/04/22 13:23:38;;;;;;;15.83;3.72;;;;;;;13.50;50.12;100358.56;2856332;83;21131;-61
2021/04/22 13:27:42;;;;;;;5.67;2.75;;;;;;;13.24;48.74;100362.63;2856192;83;21131;-64
2021/04/22 13:31:46;;;;;;;9.75;3.33;;;;;;;13.27;50.03;100358.84;2855984;83;21131;-64
2021/04/22 13:36:13;;;;;;;8.50;4.80;;;;;;;13.48;49.21;100353.86;2856000;83;21127;-63
2021/04/22 13:40:16;;;;;;;12.47;4.40;;;;;;;13.43;48.50;100342.25;2856257;82;21129;-63
2021/04/22 13:44:19;;;;;;;6.83;4.33;;;;;;;13.49;49.07;100359.04;2856343;83;21091;-62
2021/04/22 13:48:22;;;;;;;8.10;2.80;;;;;;;13.68;48.61;100338.13;2858185;82;21138;-66
2021/04/22 13:52:26;;;;;;;13.10;3.55;;;;;;;13.40;47.85;100353.20;2879219;82;21642;-66
2021/04/22 13:56:29;;;;;;;7.50;3.17;;;;;;;13.17;46.70;100348.64;2878721;82;21168;-67
2021/04/22 14:00:35;;;;;;;5.83;2.70;;;;;;;13.22;48.94;100361.07;2878841;82;21155;-66
2021/04/22 14:04:38;;;;;;;;;;;;;;;13.22;46.21;100362.41;2882381;82;21142;-67
2021/04/22 14:08:42;;;;;;;4.87;2.33;;;;;;;12.94;47.06;100343.08;2879705;82;20183;-67
2021/04/22 14:12:46;;;;;;;6.45;3.33;;;;;;;12.51;47.98;100378.50;2879622;82;21115;-66
2021/04/22 14:16:49;;;;;;;10.05;5.30;;;;;;;12.19;46.95;100368.83;2879525;82;21130;-66
2021/04/22 14:20:52;;;;;;;6.53;3.58;;;;;;;12.07;46.75;100370.75;2879544;82;22072;-67
2021/04/22 14:24:55;;;;;;;7.37;3.65;;;;;;;12.08;48.90;100361.77;2879542;82;21127;-66
2021/04/22 14:28:58;;;;;;;10.10;3.27;;;;;;;12.12;48.56;100378.36;2879224;82;21166;-66
2021/04/22 14:33:01;;;;;;;7.90;4.00;;;;;;;12.13;47.42;100366.20;2879257;82;21123;-67
2021/04/22 14:37:05;;;;;;;9.55;4.25;;;;;;;12.00;48.60;100372.24;2879703;82;21091;-67
2021/04/22 14:41:10;;;;;;;6.62;3.33;;;;;;;11.96;48.58;100370.80;2879588;82;21147;-66
2021/04/22 14:45:14;;;;;;;11.28;2.90;;;;;;;11.89;47.35;100372.31;2879762;82;21151;-66
2021/04/22 14:49:19;;;;;;;25.68;12.88;;;;;;;12.03;48.57;100377.81;2879657;82;21557;-67
2021/04/22 14:53:22;;;;;;;9.03;5.53;;;;;;;12.11;47.04;100384.16;2879566;82;21118;-67
2021/04/22 14:57:25;;;;;;;16.87;8.85;;;;;;;12.27;47.12;100368.16;2879921;82;21150;-66
2021/04/22 15:01:28;;;;;;;13.10;3.85;;;;;;;12.57;45.87;100373.08;2879531;82;21127;-67
2021/04/22 15:05:35;;;;;;;4.28;2.50;;;;;;;12.77;46.37;100377.13;2879637;82;21170;-67
2021/04/22 15:09:39;;;;;;;10.30;3.58;;;;;;;12.89;45.66;100361.34;2879608;82;21580;-67
2021/04/22 15:13:42;;;;;;;4.62;2.60;;;;;;;13.00;47.39;100385.73;2879771;82;21111;-66
2021/04/22 15:17:46;;;;;;;3.08;2.17;;;;;;;13.05;46.55;100378.65;2879508;82;21184;-67
2021/04/22 15:21:49;;;;;;;4.25;1.55;;;;;;;12.96;45.67;100379.82;2879607;82;21158;-66
2021/04/22 15:25:51;;;;;;;7.28;3.47;;;;;;;12.63;45.14;100379.70;2879622;82;21110;-66
2021/04/22 15:29:55;;;;;;;7.37;3.05;;;;;;;12.74;46.06;100365.39;2879520;82;21139;-67
2021/04/22 15:33:58;;;;;;;9.70;3.20;;;;;;;12.81;47.40;100366.55;2879626;82;21569;-67
2021/04/22 15:38:05;;;;;;;6.15;3.02;;;;;;;12.58;47.02;100362.80;2879521;82;21170;-66
2021/04/22 15:42:09;;;;;;;6.85;2.85;;;;;;;12.30;48.26;100387.06;2879552;82;21114;-66
2021/04/22 15:46:12;;;;;;;5.22;2.75;;;;;;;12.23;50.08;100388.91;2879827;82;21127;-66
2021/04/22 15:50:19;;;;;;;10.80;4.35;;;;;;;12.10;46.53;100393.14;2879561;82;21111;-66
2021/04/22 15:54:26;;;;;;;8.20;2.87;;;;;;;11.97;48.86;100395.14;2879310;82;21131;-66
2021/04/22 15:58:28;;;;;;;6.17;3.55;;;;;;;11.83;50.82;100401.19;2879078;82;29722;-66
2021/04/22 16:02:31;;;;;;;6.97;2.80;;;;;;;11.57;50.25;100401.56;2879427;82;21142;-66
2021/04/22 16:06:34;;;;;;;3.98;1.95;;;;;;;11.24;54.57;100426.55;2879571;82;21135;-66
2021/04/22 16:10:39;;;;;;;3.15;2.15;;;;;;;10.77;56.44;100418.80;2879442;82;21126;-66
2021/04/22 16:14:42;;;;;;;5.53;3.17;;;;;;;10.66;57.62;100439.16;2879391;82;21135;-66
2021/04/22 16:18:45;;;;;;;4.10;2.62;;;;;;;10.68;56.51;100433.22;2879439;82;21115;-66
2021/04/22 16:22:50;;;;;;;7.40;2.50;;;;;;;10.89;56.58;100432.46;2879079;81;21174;-66
2021/04/22 16:26:53;;;;;;;5.95;2.83;;;;;;;11.14;55.09;100423.80;2878905;82;21519;-65
2021/04/22 16:30:56;;;;;;;5.97;2.83;;;;;;;11.20;53.75;100425.97;2878646;82;21134;-66
2021/04/22 16:34:59;;;;;;;11.57;3.25;;;;;;;11.13;55.75;100435.41;2878484;82;21107;-65
2021/04/22 16:39:04;;;;;;;8.30;4.53;;;;;;;11.03;55.08;100430.50;2878717;82;21119;-66
2021/04/22 16:43:08;;;;;;;5.30;3.33;;;;;;;10.98;56.02;100426.38;2878307;82;21111;-65
2021/04/22 16:47:11;;;;;;;9.15;4.40;;;;;;;10.92;56.21;100426.88;2878233;82;21115;-66
2021/04/22 16:51:14;;;;;;;7.92;3.80;;;;;;;10.88;56.57;100428.11;2905243;81;21173;-65
2021/04/22 16:55:20;;;;;;;10.00;4.17;;;;;;;10.86;57.03;100432.72;2875601;82;21156;-65
2021/04/22 16:59:23;;;;;;;11.03;3.10;;;;;;;10.83;56.24;100423.66;2875573;82;21576;-65
2021/04/22 17:03:26;;;;;;;8.35;3.27;;;;;;;10.73;56.09;100438.19;2875891;82;21157;-65
2021/04/22 17:07:30;;;;;;;6.55;3.83;;;;;;;10.67;56.26;100442.64;2875929;82;21200;-65
2021/04/22 17:11:34;;;;;;;6.47;3.45;;;;;;;10.61;58.00;100447.99;2875683;82;21168;-65
2021/04/22 17:15:37;;;;;;;12.85;5.33;;;;;;;10.52;58.56;100462.01;2875897;82;21128;-65
2021/04/22 17:19:40;;;;;;;9.65;4.30;;;;;;;10.39;59.59;100473.56;2876064;82;21172;-65
2021/04/22 17:23:44;;;;;;;13.00;4.17;;;;;;;10.18;60.18;100503.15;2875803;82;21607;-64
2021/04/22 17:27:48;;;;;;;10.35;4.00;;;;;;;9.79;63.58;100522.85;2876010;82;21168;-64
2021/04/22 17:31:52;;;;;;;6.55;3.40;;;;;;;9.48;64.21;100517.18;2875841;82;21136;-64
2021/04/22 17:36:03;;;;;;;5.97;2.65;;;;;;;9.45;63.95;100521.39;2855821;82;21174;-64
2021/04/22 17:40:15;;;;;;;10.58;4.20;;;;;;;9.50;63.42;100499.32;2879179;82;21124;-65
2021/04/22 17:44:19;;;;;;;32.23;23.77;;;;;;;9.65;64.93;100503.14;2879128;82;21167;-65
2021/04/22 17:48:33;;;;;;;17.37;10.25;;;;;;;9.62;62.81;100503.34;2879094;82;21156;-65
2021/04/22 17:52:42;;;;;;;6.42;3.27;;;;;;;9.51;63.02;100505.00;2866830;82;21589;-65
2021/04/22 17:56:54;;;;;;;6.97;4.50;;;;;;;9.57;64.55;100517.81;2865099;83;21334;-63
2021/04/22 18:00:57;;;;;;;8.43;2.95;;;;;;;9.58;65.74;100531.45;2865232;83;21172;-63
2021/04/22 18:05:00;;;;;;;5.28;2.42;;;;;;;9.58;66.15;100534.61;2864872;83;21548;-65
2021/04/22 18:09:05;;;;;;;8.35;3.70;;;;;;;9.64;65.55;100547.92;2864957;83;21147;-65
2021/04/22 18:13:11;;;;;;;5.12;3.20;;;;;;;9.65;65.60;100544.30;2865034;83;21124;-64
2021/04/22 18:17:13;;;;;;;6.78;4.05;;;;;;;9.62;66.07;100563.96;2865325;83;21163;-65
2021/04/22 18:21:18;;;;;;;18.82;3.50;;;;;;;9.63;65.62;100563.47;2900886;81;21165;-64
2021/04/22 18:25:24;;;;;;;12.13;5.67;;;;;;;9.60;66.32;100568.54;2909856;81;21173;-64
2021/04/22 18:29:27;;;;;;;7.35;4.55;;;;;;;9.53;65.70;100574.78;2875679;82;22185;-64
2021/04/22 18:33:42;;;;;;;12.73;4.42;;;;;;;9.47;66.58;100599.59;2875737;82;21624;-65
2021/04/22 18:38:11;;;;;;;9.20;5.30;;;;;;;9.32;66.96;100616.98;2875497;81;21170;-65
2021/04/22 18:42:20;;;;;;;6.97;3.05;;;;;;;9.03;68.28;100597.82;2748829;86;21156;-65
2021/04/22 18:46:49;;;;;;;7.80;4.20;;;;;;;8.84;68.26;100574.77;2720176;87;21202;-64
2021/04/22 18:50:50;;;;;;;;;;;;;;;8.66;68.98;100588.85;2719628;87;21582;-65
2021/04/22 18:54:56;;;;;;;7.33;3.33;;;;;;;8.54;69.88;100596.31;2716645;87;20198;-65
2021/04/22 18:59:28;;;;;;;6.22;3.45;;;;;;;8.31;71.47;100603.13;2716739;87;21181;-64
2021/04/22 19:03:35;;;;;;;7.75;3.08;;;;;;;8.05;72.99;100615.01;2716545;87;21651;-64